Ralph Wien Memorial Airport
PAOT : rendu visible

Aérodrome :











RETROUVEZ-NOUS SUR...

 
LOGIN :

S'inscrire | Disclaimer

   EN    FR    IT 

 









Légende :    VFR   VFR Marginal   IFR   IFR Intensif   IFR Très Intensif
Visi : 
Plafond : 
>= 8 km
>= 3000ft
5 à 8 km
1000 à 3000 ft
1500m à 5 km
500 à 1000 ft
800 à 1500m
200 à 500 ft
< 800m
< 200 ft
Symboles :   Orages  Brouillard  Fortes neiges  Fortes précipitations  Vent > 20 kt






- Altitude de l'aérodrome : 14 ft
- Code IATA : OTZ


PAOT - Ralph Wien Memorial

DERNIER METAR :
  • 100253Z 09012KT 10SM CLR M13/M15 A3023 RMK AO2 SLP235 T11281150 58010

METARs EXPIRÉS :
  • 100153Z 10013KT 10SM CLR M13/M15 A3023 RMK AO2 SLP237 T11281150
  • 100053Z 10013KT 10SM CLR M13/M16 A3025 RMK AO2 SLP243 T11281156

TAF PAOT
Valide du 10 à 00h jusqu'au 11 à 00h UTC


092339Z 1000/1024 11018KT P6SM BKN050
FM100600 08010KT 4SM -SN BR OVC025
FM101000 08008KT P6SM VCSH OVC025
FM101400 04006KT P6SM SCT250



MET'MAP, la Météo Aéronautique d'un coup d'oeil ! - Copyright ORBIFLY Décembre 2007 - Disclaimer

ORBIFLY MET'MAP TEAM :

Programmation & Développement : Alexandra Zaïnal
Sur une idée originale de : Baudouin d'Aumeries
Assistance à la programmation : Marc-Olivier Méhu
Soutien technique & logistique : Manuel Goepfert

Contact : metmap@orbifly.com




SOURCES & CREDITS :

   NOAA       Earth
Advisory